Time;durP1;ratioP1;P1;durP2;ratioP2;P2;SDS_P1;SDS_P2;PMS_P1;PMS_P2;Temp;Humidity;BMP_temperature;BMP_pressure;BME280_temperature;BME280_humidity;BME280_pressure;Samples;Min_cycle;Max_cycle;Signal;HPM_P1;HPM_P2
2022/02/01 00:02:18;;;;;;;9.93;2.10;;;;;;;3.29;100.00;102065.63;5225557;28;20042;-73
2022/02/01 00:10:55;;;;;;;13.05;2.90;;;;;;;3.20;100.00;102079.75;5224664;28;20025;-74
2022/02/01 00:16:41;;;;;;;11.98;2.17;;;;;;;3.24;100.00;102090.84;5149632;28;20076;-74
2022/02/01 00:19:33;;;;;;;11.20;2.13;;;;;;;3.14;100.00;102090.31;5225929;28;20096;-74
2022/02/01 00:38:58;;;;;;;14.75;2.33;;;;;;;3.11;100.00;102099.03;5227864;28;20524;-74
2022/02/01 00:41:32;;;;;;;10.40;2.60;;;;;;;3.08;100.00;102100.88;5227658;28;20033;-74
2022/02/01 00:44:04;;;;;;;13.18;2.63;;;;;;;3.09;100.00;102107.75;5224761;28;20052;-74
2022/02/01 00:46:35;;;;;;;15.75;2.55;;;;;;;3.07;100.00;102102.63;5227220;28;20030;-74
2022/02/01 00:49:06;;;;;;;8.80;2.28;;;;;;;3.09;100.00;102102.56;5227464;28;20021;-74
2022/02/01 00:51:37;;;;;;;17.02;3.00;;;;;;;3.05;100.00;102094.06;5225405;28;20037;-73
2022/02/01 00:54:09;;;;;;;14.80;2.72;;;;;;;3.11;100.00;102106.81;5314463;23;20156;-74
2022/02/01 00:56:40;;;;;;;14.50;2.53;;;;;;;3.12;100.00;102098.13;5210885;28;20449;-75
2022/02/01 00:59:11;;;;;;;15.10;2.42;;;;;;;3.14;100.00;102095.47;5214393;28;20028;-74
2022/02/01 01:01:42;;;;;;;14.43;3.80;;;;;;;3.20;100.00;102099.63;5220076;28;20022;-76
2022/02/01 01:04:14;;;;;;;13.88;2.63;;;;;;;3.19;100.00;102088.44;5221836;28;20032;-76
2022/02/01 01:06:45;;;;;;;14.35;2.78;;;;;;;3.18;100.00;102081.53;5227769;28;20033;-75
2022/02/01 01:09:16;;;;;;;17.80;2.75;;;;;;;3.22;100.00;102080.56;5228774;28;20498;-76
2022/02/01 01:11:52;;;;;;;12.05;2.60;;;;;;;3.15;100.00;102061.78;5231057;28;20037;-76
2022/02/01 01:45:09;;;;;;;13.93;2.55;;;;;;;3.12;100.00;102053.28;5228517;28;20029;-74
2022/02/01 01:53:22;;;;;;;15.52;3.10;;;;;;;3.23;100.00;102086.59;5226863;28;20041;-76
2022/02/01 01:55:54;;;;;;;18.40;3.45;;;;;;;3.24;100.00;102090.84;5226716;28;20045;-76
2022/02/01 01:58:25;;;;;;;15.07;2.55;;;;;;;3.27;100.00;102093.34;5228963;28;20120;-76
2022/02/01 02:03:42;;;;;;;13.05;2.67;;;;;;;3.35;100.00;102089.59;5227436;28;20501;-76
2022/02/01 02:06:15;;;;;;;10.07;2.38;;;;;;;3.30;100.00;102072.53;5228529;28;20033;-76
2022/02/01 02:08:52;;;;;;;13.10;3.45;;;;;;;3.37;100.00;102082.63;5229811;28;20090;-76
2022/02/01 02:14:18;;;;;;;12.35;2.83;;;;;;;3.42;100.00;102108.34;5226961;28;20041;-76
2022/02/01 02:17:01;;;;;;;10.48;2.78;;;;;;;3.51;100.00;102087.28;5226290;28;20040;-76
2022/02/01 02:19:33;;;;;;;13.15;2.70;;;;;;;3.44;100.00;102066.84;5229462;28;20029;-74
2022/02/01 02:22:07;;;;;;;15.07;2.97;;;;;;;3.46;100.00;102070.25;5225704;28;20386;-76
2022/02/01 02:24:41;;;;;;;12.55;2.83;;;;;;;3.47;100.00;102071.91;5228138;28;20109;-77
2022/02/01 02:27:13;;;;;;;11.65;2.88;;;;;;;3.44;100.00;102065.09;5225705;28;20030;-75
2022/02/01 02:29:44;;;;;;;16.17;2.80;;;;;;;3.51;100.00;102079.53;5228370;28;20022;-76
2022/02/01 02:32:15;;;;;;;11.32;2.50;;;;;;;3.46;100.00;102071.06;5227271;28;20033;-76
2022/02/01 02:34:47;;;;;;;9.43;2.40;;;;;;;3.50;100.00;102077.84;5229035;28;20160;-76
2022/02/01 02:37:20;;;;;;;11.25;2.55;;;;;;;3.55;100.00;102072.50;5227828;28;20223;-76
2022/02/01 02:40:14;;;;;;;11.32;2.50;;;;;;;3.56;100.00;102069.88;5227172;28;20056;-76
2022/02/01 02:45:32;;;;;;;11.52;2.28;;;;;;;3.64;100.00;102085.13;5227660;28;20033;-76
2022/02/01 02:48:04;;;;;;;8.52;2.03;;;;;;;3.66;100.00;102057.41;5227403;28;20034;-76
2022/02/01 02:50:35;;;;;;;14.80;2.60;;;;;;;3.66;100.00;102053.06;5225207;28;20238;-76
2022/02/01 02:53:06;;;;;;;11.55;2.75;;;;;;;3.68;100.00;102054.78;5226386;28;20099;-76
2022/02/01 02:55:37;;;;;;;12.10;2.67;;;;;;;3.62;100.00;102042.88;5224006;28;20048;-76
2022/02/01 02:58:09;;;;;;;9.98;2.00;;;;;;;3.63;100.00;102037.63;5228793;28;20029;-77
2022/02/01 03:00:40;;;;;;;12.75;2.10;;;;;;;3.71;100.00;102047.69;5224751;28;20609;-74
2022/02/01 03:03:11;;;;;;;11.27;2.45;;;;;;;3.68;100.00;102039.22;5224935;28;20442;-76
2022/02/01 03:05:43;;;;;;;12.63;2.72;;;;;;;3.71;100.00;102057.22;5226712;28;20030;-76
2022/02/01 03:08:14;;;;;;;15.43;2.13;;;;;;;3.74;100.00;102064.91;5227458;28;20037;-76
2022/02/01 03:10:45;;;;;;;12.55;2.42;;;;;;;3.73;100.00;102061.47;5226600;28;20039;-76
2022/02/01 03:13:26;;;;;;;16.23;2.35;;;;;;;3.74;100.00;102064.91;5227174;28;20091;-75
2022/02/01 03:16:11;;;;;;;7.47;2.20;;;;;;;3.69;100.00;102054.69;5203650;28;20038;-76
2022/02/01 03:21:33;;;;;;;13.20;2.30;;;;;;;3.75;100.00;102040.66;5224217;28;20053;-76
2022/02/01 03:24:04;;;;;;;12.35;2.40;;;;;;;3.74;100.00;102032.03;5225337;28;20448;-74
2022/02/01 03:26:36;;;;;;;10.25;1.95;;;;;;;3.77;100.00;102018.13;5227789;28;20026;-76
2022/02/01 03:29:07;;;;;;;13.93;2.65;;;;;;;3.74;100.00;102013.91;5230108;28;20029;-75
2022/02/01 03:31:38;;;;;;;13.00;2.58;;;;;;;3.75;100.00;101994.88;5228272;28;20026;-76
2022/02/01 03:34:10;;;;;;;9.50;2.30;;;;;;;3.77;100.00;102000.00;5229570;28;20052;-75
2022/02/01 03:36:41;;;;;;;10.13;2.20;;;;;;;3.75;100.00;101983.63;5231277;28;20034;-76
2022/02/01 03:39:12;;;;;;;11.48;2.63;;;;;;;3.82;100.00;101993.72;5227795;28;20017;-76
2022/02/01 03:41:44;;;;;;;10.95;2.00;;;;;;;3.83;100.00;101986.81;5230373;28;20041;-75
2022/02/01 03:44:15;;;;;;;13.20;2.53;;;;;;;3.84;100.00;101978.13;5228824;28;20033;-76
2022/02/01 03:47:01;;;;;;;11.65;2.00;;;;;;;3.83;100.00;101973.84;5232615;28;20029;-76
2022/02/01 03:49:35;;;;;;;8.98;1.92;;;;;;;3.84;100.00;101978.97;5231324;28;20545;-74
2022/02/01 03:52:07;;;;;;;10.52;2.50;;;;;;;3.85;100.00;101978.06;5227119;28;20030;-74
2022/02/01 03:54:39;;;;;;;12.97;2.93;;;;;;;3.84;100.00;101962.56;5228984;28;20570;-76
2022/02/01 03:57:13;;;;;;;15.10;2.70;;;;;;;3.83;100.00;101951.34;5230315;28;20041;-75
2022/02/01 03:59:45;;;;;;;17.85;4.65;;;;;;;3.84;100.00;101940.06;5229653;28;20041;-76
2022/02/01 04:02:17;;;;;;;9.25;1.98;;;;;;;3.83;100.00;101938.41;5231133;28;20021;-76
2022/02/01 04:04:53;;;;;;;14.32;3.05;;;;;;;3.80;100.00;101932.47;5229414;28;20036;-76
2022/02/01 04:07:24;;;;;;;10.07;2.40;;;;;;;3.85;100.00;101939.16;5229914;28;20091;-77
2022/02/01 04:09:56;;;;;;;25.17;3.47;;;;;;;3.86;100.00;101952.97;5228641;28;20069;-76
2022/02/01 04:12:28;;;;;;;9.48;3.08;;;;;;;3.86;100.00;101945.19;5229573;28;20029;-74
2022/02/01 04:14:59;;;;;;;12.20;2.53;;;;;;;3.91;100.00;101945.88;5227512;28;20028;-75
2022/02/01 04:17:31;;;;;;;9.55;2.75;;;;;;;3.90;100.00;101941.56;5227776;28;20017;-75
2022/02/01 04:20:03;;;;;;;13.82;3.33;;;;;;;3.93;100.00;101938.03;5230085;28;20032;-76
2022/02/01 04:22:34;;;;;;;17.33;4.07;;;;;;;3.93;100.00;101938.03;5228882;28;20022;-76
2022/02/01 04:25:06;;;;;;;14.35;2.70;;;;;;;3.95;100.00;101949.19;5229168;28;20064;-76
2022/02/01 04:27:38;;;;;;;14.45;2.97;;;;;;;3.94;100.00;101944.88;5227807;28;20022;-76
2022/02/01 04:30:15;;;;;;;16.27;3.45;;;;;;;4.02;100.00;101948.88;5228559;28;20061;-76
2022/02/01 04:32:52;;;;;;;12.30;3.28;;;;;;;4.04;100.00;101954.00;5226445;28;20176;-76
2022/02/01 04:35:27;;;;;;;9.32;2.80;;;;;;;4.06;100.00;101945.25;5228730;28;20079;-76
2022/02/01 04:37:58;;;;;;;19.30;3.95;;;;;;;4.03;100.00;101939.34;5229288;28;20076;-74
2022/02/01 04:40:33;;;;;;;14.45;3.80;;;;;;;4.07;100.00;101941.75;5207951;28;20874;-76
2022/02/01 04:43:05;;;;;;;19.23;4.07;;;;;;;4.08;100.00;101945.19;5228835;28;20474;-76
2022/02/01 04:45:37;;;;;;;17.73;3.63;;;;;;;4.11;100.00;101932.94;5225710;28;20566;-76
2022/02/01 04:48:08;;;;;;;17.73;3.95;;;;;;;4.15;100.00;101937.09;5230372;28;20049;-76
2022/02/01 04:50:40;;;;;;;15.50;4.57;;;;;;;4.13;100.00;101933.75;5229291;28;20387;-76
2022/02/01 04:53:12;;;;;;;14.25;3.17;;;;;;;4.12;100.00;101926.84;5227171;28;20029;-76
2022/02/01 04:58:17;;;;;;;11.93;3.15;;;;;;;4.19;100.00;101947.38;5229408;28;20078;-76
2022/02/01 05:00:49;;;;;;;15.45;3.90;;;;;;;4.22;100.00;101944.66;5225688;28;20029;-75
2022/02/01 05:03:20;;;;;;;13.18;3.55;;;;;;;4.17;100.00;101928.41;5223772;28;20028;-77
2022/02/01 05:05:52;;;;;;;13.77;3.50;;;;;;;4.20;100.00;101931.72;5227147;28;20029;-76
2022/02/01 05:08:26;;;;;;;15.55;3.33;;;;;;;4.22;100.00;101923.91;5229427;28;20026;-75
2022/02/01 05:10:57;;;;;;;14.27;3.88;;;;;;;4.23;100.00;101915.19;5228385;28;20022;-76
2022/02/01 05:16:06;;;;;;;18.60;4.22;;;;;;;4.29;100.00;101925.34;5229491;28;20034;-76
2022/02/01 05:18:48;;;;;;;16.55;4.07;;;;;;;4.28;100.00;101910.66;5229189;28;20030;-76
2022/02/01 05:21:24;;;;;;;22.73;4.57;;;;;;;4.29;100.00;101896.81;5229361;28;20411;-75
2022/02/01 05:23:57;;;;;;;20.17;4.28;;;;;;;4.29;100.00;101889.84;5226435;28;20033;-76
2022/02/01 05:26:30;;;;;;;15.02;4.40;;;;;;;4.32;100.00;101881.94;5211572;28;20082;-74
2022/02/01 05:29:02;;;;;;;;;;;;;;;4.72;100.00;101882.00;5229021;28;20022;-76
2022/02/01 05:31:33;;;;;;;16.13;4.15;;;;;;;4.41;100.00;101866.91;5227525;28;20212;-76
2022/02/01 05:34:04;;;;;;;18.55;4.80;;;;;;;4.38;100.00;101871.31;5226145;28;20033;-76
2022/02/01 05:36:35;;;;;;;18.63;5.25;;;;;;;4.32;100.00;101850.81;5229430;28;20656;-76
2022/02/01 05:39:20;;;;;;;19.98;4.47;;;;;;;4.50;100.00;101851.75;5226733;28;20056;-77
2022/02/01 05:41:54;;;;;;;22.13;5.50;;;;;;;4.37;100.00;101835.91;5224746;28;20033;-76
2022/02/01 05:44:25;;;;;;;16.50;4.47;;;;;;;4.42;100.00;101840.88;5227760;28;20018;-76
2022/02/01 05:46:56;;;;;;;20.83;5.20;;;;;;;4.45;100.00;101843.34;5228366;28;20111;-75
2022/02/01 05:49:28;;;;;;;18.15;4.40;;;;;;;4.46;100.00;101846.78;5226952;28;20052;-75
2022/02/01 05:52:01;;;;;;;20.90;5.25;;;;;;;4.48;100.00;101840.63;5225510;28;20025;-74
2022/02/01 05:54:32;;;;;;;18.80;5.13;;;;;;;4.50;100.00;101838.78;5226043;28;20049;-76
2022/02/01 05:57:04;;;;;;;21.15;5.53;;;;;;;4.48;100.00;101819.88;5228502;28;20037;-76
2022/02/01 05:59:37;;;;;;;18.80;5.82;;;;;;;4.45;100.00;101809.63;5228656;28;20021;-76
2022/02/01 06:02:08;;;;;;;15.93;5.35;;;;;;;4.52;100.00;101816.22;5226887;28;20236;-75
2022/02/01 06:04:40;;;;;;;21.20;6.32;;;;;;;4.48;100.00;101814.69;5227614;28;20445;-76
2022/02/01 06:07:11;;;;;;;19.70;6.50;;;;;;;4.45;100.00;101796.66;5224631;28;20490;-76
2022/02/01 06:09:42;;;;;;;16.40;5.55;;;;;;;4.49;100.00;101794.75;5226107;28;20021;-75
2022/02/01 06:12:13;;;;;;;19.17;6.75;;;;;;;4.51;100.00;101788.59;5226278;28;20057;-76
2022/02/01 06:14:45;;;;;;;18.75;6.07;;;;;;;4.49;100.00;101785.22;5226966;28;20021;-76
2022/02/01 06:17:16;;;;;;;17.85;6.07;;;;;;;4.50;100.00;101781.69;5224590;28;20031;-76
2022/02/01 06:19:47;;;;;;;22.02;6.35;;;;;;;4.49;100.00;101780.03;5227079;28;20022;-76
2022/02/01 06:22:19;;;;;;;17.55;6.38;;;;;;;4.53;100.00;101785.94;5228420;28;20056;-75
2022/02/01 06:24:52;;;;;;;20.85;8.02;;;;;;;4.51;100.00;101783.41;5226185;28;20043;-76
2022/02/01 06:27:23;;;;;;;20.40;7.30;;;;;;;4.53;100.00;101776.38;5229226;28;20370;-76
2022/02/01 06:29:55;;;;;;;21.75;6.82;;;;;;;4.50;100.00;101755.75;5227964;28;20025;-76
2022/02/01 06:32:31;;;;;;;20.73;6.45;;;;;;;4.62;100.00;101759.53;5226775;28;20029;-76
2022/02/01 06:35:03;;;;;;;20.13;6.88;;;;;;;4.62;100.00;101765.59;5227412;28;20030;-75
2022/02/01 06:37:34;;;;;;;16.17;6.93;;;;;;;4.63;100.00;101762.09;5227922;28;20502;-76
2022/02/01 06:40:06;;;;;;;21.10;7.03;;;;;;;4.62;100.00;101759.53;5229008;28;20033;-76
2022/02/01 06:42:37;;;;;;;23.38;8.05;;;;;;;4.62;100.00;101759.53;5226333;28;20541;-77
2022/02/01 06:45:09;;;;;;;18.77;7.07;;;;;;;4.68;100.00;101751.50;5227523;28;20029;-76
2022/02/01 06:47:40;;;;;;;24.58;8.00;;;;;;;4.68;100.00;101738.53;5226847;28;20024;-75
2022/02/01 06:50:12;;;;;;;21.15;8.63;;;;;;;4.73;100.00;101740.91;5226358;28;20426;-76
2022/02/01 06:52:44;;;;;;;21.20;7.93;;;;;;;4.64;100.00;101732.63;5225938;28;20038;-77
2022/02/01 06:55:21;;;;;;;17.30;7.53;;;;;;;4.78;100.00;101752.78;5240148;23;20061;-75
2022/02/01 06:57:52;;;;;;;19.50;9.00;;;;;;;4.77;100.00;101740.72;5218504;28;20029;-74
2022/02/01 07:00:24;;;;;;;22.52;9.20;;;;;;;4.83;100.00;101740.41;5222799;28;20056;-74
2022/02/01 07:02:55;;;;;;;23.52;9.82;;;;;;;4.83;100.00;101739.56;5224406;28;20193;-75
2022/02/01 07:05:26;;;;;;;24.63;11.68;;;;;;;4.83;100.00;101726.59;5219856;28;20057;-74
2022/02/01 07:07:58;;;;;;;23.90;12.00;;;;;;;4.80;100.00;101731.91;5217970;28;20100;-75
2022/02/01 07:10:29;;;;;;;24.50;13.35;;;;;;;4.88;100.00;101738.44;5200426;28;20036;-74
2022/02/01 07:13:01;;;;;;;23.05;12.10;;;;;;;4.89;100.00;101723.72;5216791;28;20079;-75
2022/02/01 07:15:32;;;;;;;24.98;12.50;;;;;;;4.94;100.00;101724.34;5215752;28;20029;-74
2022/02/01 07:18:04;;;;;;;25.88;14.13;;;;;;;5.00;100.00;101720.59;5218269;28;20096;-74
2022/02/01 07:20:35;;;;;;;27.33;14.25;;;;;;;4.97;100.00;101706.00;5198305;28;20022;-75
2022/02/01 07:23:11;;;;;;;27.30;15.23;;;;;;;4.97;100.00;101710.38;5198220;28;20033;-77
2022/02/01 07:25:46;;;;;;;30.10;15.43;;;;;;;5.00;100.00;101705.88;5217157;28;20038;-76
2022/02/01 07:28:20;;;;;;;26.23;14.98;;;;;;;4.98;100.00;101699.91;5218796;28;20072;-75
2022/02/01 07:30:51;;;;;;;24.95;14.95;;;;;;;5.10;100.00;101706.25;5218389;28;20022;-74
2022/02/01 07:33:24;;;;;;;22.67;14.68;;;;;;;5.13;100.00;101698.31;5215953;28;20044;-75
2022/02/01 07:35:57;;;;;;;23.38;15.70;;;;;;;5.18;100.00;101705.88;5215022;28;20037;-74
2022/02/01 07:38:28;;;;;;;24.55;15.40;;;;;;;5.15;100.00;101709.47;5216178;28;20025;-76
2022/02/01 07:41:00;;;;;;;23.92;15.57;;;;;;;5.10;100.00;101704.50;5215296;28;20099;-75
2022/02/01 07:43:31;;;;;;;27.80;17.17;;;;;;;5.13;100.00;101704.34;5199239;28;20113;-76
2022/02/01 07:46:07;;;;;;;26.20;14.32;;;;;;;5.17;100.00;101701.63;5216617;28;20029;-76
2022/02/01 07:48:39;;;;;;;28.77;16.52;;;;;;;5.11;100.00;101690.63;5216193;28;20025;-76
2022/02/01 07:51:10;;;;;;;29.88;16.45;;;;;;;5.11;100.00;101697.53;5213859;28;20073;-76
2022/02/01 07:53:42;;;;;;;24.67;16.08;;;;;;;5.03;100.00;101684.09;5216259;28;20030;-75
2022/02/01 07:56:13;;;;;;;29.17;16.88;;;;;;;5.07;100.00;101668.28;5217254;28;20042;-75
2022/02/01 07:58:45;;;;;;;29.17;17.38;;;;;;;5.09;100.00;101676.84;5217357;28;20037;-75
2022/02/01 08:01:16;;;;;;;24.75;15.75;;;;;;;5.10;100.00;101669.91;5199122;28;20029;-76
2022/02/01 08:03:47;;;;;;;26.60;16.05;;;;;;;5.02;100.00;101659.03;5215612;28;20104;-75
2022/02/01 08:06:18;;;;;;;27.10;16.20;;;;;;;5.08;100.00;101646.59;5214555;28;20032;-75
2022/02/01 08:08:50;;;;;;;27.08;16.50;;;;;;;4.97;100.00;101635.06;5218179;28;20038;-75
2022/02/01 08:11:21;;;;;;;26.77;16.38;;;;;;;4.98;100.00;101644.53;5217542;28;20026;-75
2022/02/01 08:19:36;;;;;;;24.90;15.88;;;;;;;4.97;100.00;101638.50;5218804;28;20104;-75
2022/02/01 08:22:24;;;;;;;25.10;15.75;;;;;;;4.98;100.00;101647.97;5218952;28;20064;-74
2022/02/01 08:24:56;;;;;;;22.27;15.27;;;;;;;5.02;100.00;101656.44;5218587;28;20037;-74
2022/02/01 08:27:29;;;;;;;21.67;15.63;;;;;;;5.02;100.00;101648.66;5219504;28;20060;-76
2022/02/01 08:30:03;;;;;;;18.50;14.02;;;;;;;5.05;100.00;101638.97;5222042;28;20376;-75
2022/02/01 08:32:35;;;;;;;18.33;13.60;;;;;;;5.02;100.00;101643.47;5217422;28;20037;-75
2022/02/01 08:35:07;;;;;;;20.00;14.37;;;;;;;5.01;100.00;101642.63;5218139;28;20028;-75
2022/02/01 08:37:38;;;;;;;18.85;14.48;;;;;;;5.00;100.00;101642.69;5218803;28;20026;-75
2022/02/01 08:40:12;;;;;;;18.30;13.70;;;;;;;4.99;100.00;101647.03;5219685;28;20026;-75
2022/02/01 08:42:44;;;;;;;19.33;15.18;;;;;;;4.92;100.00;101637.03;5218912;28;20562;-75
2022/02/01 08:45:25;;;;;;;18.80;14.35;;;;;;;5.01;100.00;101640.03;5217499;28;20127;-75
2022/02/01 08:47:58;;;;;;;18.15;13.73;;;;;;;5.02;100.00;101633.91;5220786;28;20026;-75
2022/02/01 08:50:33;;;;;;;16.50;14.05;;;;;;;5.04;100.00;101623.47;5218748;28;20569;-75
2022/02/01 08:53:13;;;;;;;21.02;15.77;;;;;;;5.00;100.00;101614.13;5219865;28;20266;-74
2022/02/01 08:58:28;;;;;;;;;;;;;;;5.46;100.00;101606.66;5220917;28;20084;-75
2022/02/01 09:01:00;;;;;;;16.37;13.70;;;;;;;5.19;100.00;101598.47;5217736;28;19913;-74
2022/02/01 09:03:32;;;;;;;19.00;14.82;;;;;;;5.19;100.00;101601.06;5217890;28;20335;-74
2022/02/01 09:06:04;;;;;;;20.20;16.48;;;;;;;5.15;100.00;101581.34;5216749;28;20507;-75
2022/02/01 09:08:35;;;;;;;17.75;14.68;;;;;;;5.18;100.00;101569.06;5217026;28;20042;-75
2022/02/01 09:11:08;;;;;;;18.38;16.35;;;;;;;5.20;100.00;101553.41;5219261;28;20021;-76
2022/02/01 09:13:40;;;;;;;21.27;15.98;;;;;;;5.17;100.00;101543.16;5218559;28;20620;-75
2022/02/01 09:16:12;;;;;;;20.63;16.05;;;;;;;5.23;100.00;101537.66;5218093;28;20033;-75
2022/02/01 09:18:43;;;;;;;18.27;15.60;;;;;;;5.26;100.00;101532.28;5217184;28;20486;-75
2022/02/01 09:21:15;;;;;;;20.17;16.20;;;;;;;5.29;100.00;101524.34;5217598;28;20120;-75
2022/02/01 09:23:47;;;;;;;20.35;17.13;;;;;;;5.28;100.00;101527.88;5218796;28;20471;-75
2022/02/01 09:26:19;;;;;;;16.90;15.25;;;;;;;5.29;100.00;101526.94;5216307;28;20056;-75
2022/02/01 09:28:51;;;;;;;19.20;16.42;;;;;;;5.41;100.00;101523.69;5216302;28;20053;-76
2022/02/01 09:31:22;;;;;;;20.67;16.67;;;;;;;5.37;100.00;101506.59;5216892;28;20021;-75
2022/02/01 09:33:53;;;;;;;19.40;16.42;;;;;;;5.41;100.00;101518.50;5216717;28;20064;-76
2022/02/01 09:36:25;;;;;;;20.92;17.65;;;;;;;5.43;100.00;101510.66;5217439;28;20063;-75
2022/02/01 09:38:56;;;;;;;17.80;15.95;;;;;;;5.50;100.00;101499.00;5217915;28;20360;-76
2022/02/01 09:41:29;;;;;;;20.33;16.95;;;;;;;5.51;100.00;101498.09;5216269;28;20091;-77
2022/02/01 09:44:01;;;;;;;;;;;;;;;5.91;100.00;101491.59;5216931;28;20105;-76
2022/02/01 09:46:34;;;;;;;19.60;16.30;;;;;;;5.58;100.00;101460.44;5217226;28;20023;-76
2022/02/01 09:49:10;;;;;;;18.17;16.25;;;;;;;5.57;100.00;101448.38;5217000;28;20040;-75
2022/02/01 09:51:41;;;;;;;20.13;16.83;;;;;;;5.59;100.00;101443.94;5218530;28;20021;-75
2022/02/01 09:54:13;;;;;;;18.58;16.60;;;;;;;5.60;100.00;101433.44;5216764;28;20403;-76
2022/02/01 09:56:44;;;;;;;19.00;16.50;;;;;;;5.65;100.00;101429.78;5217374;28;20042;-75
2022/02/01 09:59:32;;;;;;;20.67;17.20;;;;;;;5.70;100.00;101430.34;5217954;28;20390;-75
2022/02/01 10:02:09;;;;;;;18.17;16.20;;;;;;;5.75;100.00;101420.53;5214664;28;20057;-75
2022/02/01 10:04:40;;;;;;;19.42;17.27;;;;;;;5.71;100.00;101429.41;5216230;28;20025;-75
2022/02/01 10:07:13;;;;;;;18.55;15.95;;;;;;;5.81;100.00;101425.41;5199225;28;20029;-75
2022/02/01 10:09:49;;;;;;;17.60;15.65;;;;;;;5.84;100.00;101420.88;5197811;28;20069;-75
2022/02/01 10:12:22;;;;;;;18.45;15.40;;;;;;;5.87;100.00;101419.84;5216183;28;20340;-75
2022/02/01 10:15:03;;;;;;;17.37;15.27;;;;;;;5.92;100.00;101396.19;5215038;28;20537;-76
2022/02/01 10:17:48;;;;;;;18.15;16.33;;;;;;;5.88;100.00;101402.50;5197351;28;20272;-75
2022/02/01 10:20:19;;;;;;;18.25;16.42;;;;;;;5.96;100.00;101403.75;5196333;28;20068;-75
2022/02/01 10:22:50;;;;;;;18.33;16.35;;;;;;;5.96;100.00;101395.13;5215463;28;20021;-75
2022/02/01 10:25:29;;;;;;;18.92;16.77;;;;;;;6.06;100.00;101394.53;5216500;28;20387;-76
2022/02/01 10:28:02;;;;;;;20.42;18.25;;;;;;;6.03;100.00;101404.25;5211015;28;20569;-76
2022/02/01 10:30:42;;;;;;;18.42;16.52;;;;;;;6.08;100.00;101413.47;5200845;28;20083;-76
2022/02/01 10:33:53;;;;;;;19.20;17.30;;;;;;;6.20;100.00;101411.91;5218009;28;20040;-76
2022/02/01 10:36:18;;;;;;;19.40;17.47;;;;;;;6.18;100.00;101413.78;5215318;28;20045;-75
2022/02/01 10:38:52;;;;;;;19.73;17.63;;;;;;;6.27;100.00;101409.81;5216292;28;20032;-75
2022/02/01 10:41:23;;;;;;;21.67;19.35;;;;;;;6.26;100.00;101408.97;5216441;28;20033;-75
2022/02/01 10:43:55;;;;;;;22.10;19.85;;;;;;;6.30;100.00;101396.63;5214253;28;20095;-76
2022/02/01 10:46:26;;;;;;;23.30;20.73;;;;;;;6.32;100.00;101392.16;5214899;28;20017;-75
2022/02/01 10:48:57;;;;;;;22.60;20.30;;;;;;;6.40;100.00;101397.75;5214258;28;20034;-76
2022/02/01 10:51:29;;;;;;;24.15;21.55;;;;;;;6.45;100.00;101385.31;5217082;28;20066;-76
2022/02/01 10:54:01;;;;;;;25.27;22.38;;;;;;;6.48;100.00;101381.72;5217094;28;20033;-76
2022/02/01 10:56:33;;;;;;;26.25;23.00;;;;;;;6.49;100.00;101363.38;5216561;28;20034;-76
2022/02/01 10:59:04;;;;;;;26.17;21.77;;;;;;;6.56;100.00;101375.13;5214230;28;20129;-75
2022/02/01 11:01:35;;;;;;;25.05;22.38;;;;;;;6.62;100.00;101366.09;5203060;28;20048;-76
2022/02/01 11:04:09;;;;;;;24.67;21.85;;;;;;;6.63;100.00;101352.16;5216081;28;20041;-76
2022/02/01 11:06:40;;;;;;;26.65;21.17;;;;;;;6.72;100.00;101348.16;5215182;28;20025;-76
2022/02/01 11:09:11;;;;;;;25.70;20.70;;;;;;;6.69;100.00;101340.53;5215577;28;20101;-76
2022/02/01 11:11:51;;;;;;;23.23;20.55;;;;;;;6.90;100.00;101354.84;5205407;28;20022;-76
2022/02/01 11:14:26;;;;;;;23.42;20.05;;;;;;;6.90;100.00;101354.84;5219084;28;20501;-76
2022/02/01 11:17:06;;;;;;;20.98;18.70;;;;;;;7.04;100.00;101338.34;5217844;28;20022;-76
2022/02/01 11:19:56;;;;;;;21.58;18.52;;;;;;;7.12;100.00;101333.50;5217537;28;20029;-75
2022/02/01 11:22:35;;;;;;;20.92;17.77;;;;;;;7.07;100.00;101331.19;5216858;28;20124;-76
2022/02/01 11:25:21;;;;;;;20.48;16.80;;;;;;;7.16;100.00;101310.69;5216210;28;20036;-76
2022/02/01 11:30:40;;;;;;;15.57;13.77;;;;;;;7.24;100.00;101303.25;5215771;28;20056;-75
2022/02/01 11:33:13;;;;;;;15.48;13.88;;;;;;;7.29;100.00;101306.41;5196634;28;20029;-77
2022/02/01 11:35:44;;;;;;;13.63;12.18;;;;;;;7.34;100.00;101306.09;5213520;28;20045;-76
2022/02/01 11:38:18;;;;;;;13.65;11.82;;;;;;;7.37;100.00;101318.94;5217251;28;20030;-75
2022/02/01 11:41:00;;;;;;;11.95;10.75;;;;;;;7.48;100.00;101314.72;5215667;28;20022;-75
2022/02/01 11:43:32;;;;;;;12.98;10.18;;;;;;;7.46;100.00;101321.81;5213920;28;20112;-76
2022/02/01 11:46:07;;;;;;;13.50;10.48;;;;;;;7.48;100.00;101322.53;5216659;28;20109;-77
2022/02/01 11:48:40;;;;;;;10.90;9.07;;;;;;;7.55;100.00;101316.00;5209735;28;20038;-77
2022/02/01 11:51:13;;;;;;;12.00;8.48;;;;;;;7.55;100.00;101309.94;5216459;28;20057;-77
2022/02/01 11:53:44;;;;;;;9.77;8.70;;;;;;;7.64;100.00;101311.13;5218735;28;20038;-77
2022/02/01 11:56:17;;;;;;;8.60;7.60;;;;;;;7.60;100.00;101294.84;5220490;28;20099;-76
2022/02/01 11:58:49;;;;;;;8.27;6.97;;;;;;;7.66;100.00;101296.22;5201281;28;20117;-76
2022/02/01 12:01:25;;;;;;;7.63;6.83;;;;;;;7.71;100.00;101296.75;5217664;28;20068;-76
2022/02/01 12:04:02;;;;;;;9.98;6.78;;;;;;;7.80;100.00;101298.72;5218882;28;20303;-76
2022/02/01 12:06:40;;;;;;;8.63;6.50;;;;;;;7.79;100.00;101286.63;5219496;28;20022;-76
2022/02/01 12:09:20;;;;;;;12.10;7.32;;;;;;;7.84;100.00;101284.59;5220273;28;20052;-76
2022/02/01 12:11:58;;;;;;;10.65;6.70;;;;;;;7.89;100.00;101281.66;5217346;28;20033;-76
2022/02/01 12:14:30;;;;;;;10.35;7.38;;;;;;;7.81;100.00;101271.72;5217514;28;20029;-76
2022/02/01 12:17:01;;;;;;;13.82;7.75;;;;;;;7.89;100.00;101276.44;5216993;28;20514;-76
2022/02/01 12:19:52;;;;;;;10.80;7.90;;;;;;;8.05;100.00;101284.91;5217203;28;20371;-77
2022/02/01 12:22:30;;;;;;;12.93;7.78;;;;;;;8.04;100.00;101291.91;5218130;28;20093;-76
2022/02/01 12:25:09;;;;;;;14.27;8.35;;;;;;;8.07;100.00;101274.34;5217435;28;20040;-76
2022/02/01 12:27:45;;;;;;;13.50;8.73;;;;;;;8.05;100.00;101285.75;5218397;28;20033;-77
2022/02/01 12:30:16;;;;;;;18.63;9.45;;;;;;;8.02;100.00;101274.66;5217352;28;20045;-76
2022/02/01 12:32:50;;;;;;;19.02;8.50;;;;;;;8.16;100.00;101258.09;5215528;28;20037;-76
2022/02/01 12:35:35;;;;;;;20.60;8.13;;;;;;;8.24;100.00;101253.19;5218295;28;20034;-76
2022/02/01 12:38:20;;;;;;;21.20;8.65;;;;;;;8.16;100.00;101238.03;5217632;28;20017;-76
2022/02/01 12:40:59;;;;;;;20.60;8.88;;;;;;;8.25;100.00;101245.22;5219619;28;21056;-78
2022/02/01 12:43:43;;;;;;;16.40;7.25;;;;;;;8.26;100.00;101246.09;5214420;28;20482;-76
2022/02/01 12:46:32;;;;;;;18.75;7.38;;;;;;;8.22;100.00;101226.34;5218643;28;20029;-76
2022/02/01 12:49:03;;;;;;;16.73;7.22;;;;;;;8.23;100.00;101213.19;5217982;28;20504;-76
2022/02/01 12:51:43;;;;;;;18.58;6.80;;;;;;;8.40;100.00;101209.44;5217513;28;20037;-76
2022/02/01 12:54:32;;;;;;;20.02;7.57;;;;;;;8.41;100.00;101205.91;5214634;28;20048;-76
2022/02/01 12:57:08;;;;;;;21.02;7.22;;;;;;;8.35;100.00;101215.91;5217353;28;20483;-76
2022/02/01 12:59:51;;;;;;;20.13;7.40;;;;;;;8.45;100.00;101222.19;5219364;28;20026;-76
2022/02/01 13:02:26;;;;;;;18.67;6.65;;;;;;;8.45;100.00;101222.19;5217730;28;20088;-76
2022/02/01 13:05:04;;;;;;;16.67;6.07;;;;;;;8.48;100.00;101216.72;5217889;28;20036;-76
2022/02/01 13:08:11;;;;;;;19.23;6.05;;;;;;;8.49;100.00;101219.25;5218768;28;20104;-76
2022/02/01 13:16:23;;;;;;;10.95;5.05;;;;;;;8.58;100.00;101170.75;5216437;28;20048;-76
2022/02/01 13:21:40;;;;;;;9.93;4.55;;;;;;;8.69;100.00;101165.59;5217481;28;20037;-76
2022/02/01 13:24:12;;;;;;;12.48;5.20;;;;;;;8.64;100.00;101172.13;5216047;28;20030;-76